Time;durP1;ratioP1;P1;durP2;ratioP2;P2;SDS_P1;SDS_P2;PMS_P1;PMS_P2;Temp;Humidity;BMP_temperature;BMP_pressure;BME280_temperature;BME280_humidity;BME280_pressure;Samples;Min_cycle;Max_cycle;Signal;HPM_P1;HPM_P2
2020/12/21 00:00:18;;;;;;;15.58;7.42;;;6.20;99.90;;;;;;1905363;75;21049;-75
2020/12/21 00:02:44;;;;;;;12.95;7.45;;;6.20;99.90;;;;;;1913279;74;21068;-73
2020/12/21 00:05:10;;;;;;;15.00;8.48;;;6.20;99.90;;;;;;1910798;73;21077;-74
2020/12/21 00:07:36;;;;;;;15.48;7.95;;;6.20;99.90;;;;;;1912288;75;21194;-74
2020/12/21 00:10:02;;;;;;;10.63;7.37;;;6.30;99.90;;;;;;1910658;75;21069;-74
2020/12/21 00:12:28;;;;;;;16.70;8.20;;;6.20;99.90;;;;;;1902918;73;21150;-74
2020/12/21 00:14:55;;;;;;;14.45;8.80;;;6.20;99.90;;;;;;1907900;75;21520;-74
2020/12/21 00:17:21;;;;;;;15.72;8.20;;;6.20;99.90;;;;;;1908016;73;21536;-74
2020/12/21 00:19:47;;;;;;;12.07;7.28;;;6.10;99.90;;;;;;1912983;75;21171;-75
2020/12/21 00:22:13;;;;;;;13.30;7.67;;;6.20;99.90;;;;;;1903624;75;21069;-75
2020/12/21 00:24:39;;;;;;;11.97;7.53;;;6.20;99.90;;;;;;1907064;73;21143;-75
2020/12/21 00:27:05;;;;;;;12.47;7.28;;;6.30;99.90;;;;;;1907084;75;21084;-75
2020/12/21 00:29:31;;;;;;;13.72;7.67;;;6.30;99.90;;;;;;1920233;73;21150;-75
2020/12/21 00:31:59;;;;;;;11.50;6.92;;;6.30;99.90;;;;;;1917840;73;21153;-74
2020/12/21 00:34:25;;;;;;;14.35;7.30;;;6.30;99.90;;;;;;1912217;75;21171;-75
2020/12/21 00:36:53;;;;;;;13.78;7.75;;;6.40;99.90;;;;;;1905148;75;21113;-74
2020/12/21 00:39:19;;;;;;;13.35;7.45;;;6.30;99.90;;;;;;1905654;75;21198;-74
2020/12/21 00:41:45;;;;;;;15.63;7.40;;;6.30;99.90;;;;;;1904597;75;21084;-75
2020/12/21 00:44:11;;;;;;;15.05;8.28;;;6.20;99.90;;;;;;1916383;73;21079;-75
2020/12/21 00:46:37;;;;;;;13.53;6.87;;;6.20;99.90;;;;;;1910667;73;21149;-74
2020/12/21 00:49:03;;;;;;;11.35;7.22;;;6.20;99.90;;;;;;1917857;75;21080;-75
2020/12/21 00:51:31;;;;;;;11.40;7.15;;;6.20;99.90;;;;;;1905842;75;21171;-74
2020/12/21 00:53:57;;;;;;;11.85;7.60;;;6.20;99.90;;;;;;1907528;75;21136;-74
2020/12/21 00:56:23;;;;;;;14.40;7.65;;;6.20;99.90;;;;;;1917795;75;21071;-74
2020/12/21 00:58:49;;;;;;;13.53;7.50;;;6.10;99.90;;;;;;1908793;75;21057;-74
2020/12/21 01:01:15;;;;;;;10.72;7.10;;;6.10;99.90;;;;;;1917780;75;21074;-74
2020/12/21 01:03:41;;;;;;;14.15;7.22;;;5.90;99.90;;;;;;1912982;73;21287;-74
2020/12/21 01:06:07;;;;;;;13.38;7.33;;;5.90;99.90;;;;;;1904215;75;21084;-74
2020/12/21 01:08:34;;;;;;;13.22;7.58;;;6.00;99.90;;;;;;1905791;75;21525;-74
2020/12/21 01:11:00;;;;;;;9.80;7.25;;;5.90;99.90;;;;;;1911705;73;21449;-74
2020/12/21 01:13:26;;;;;;;13.13;7.67;;;6.00;99.90;;;;;;1915238;73;21520;-74
2020/12/21 01:15:52;;;;;;;14.58;7.80;;;5.70;99.90;;;;;;1908349;74;21122;-74
2020/12/21 01:18:19;;;;;;;15.80;8.18;;;5.80;99.90;;;;;;1904305;75;21195;-74
2020/12/21 01:20:46;;;;;;;11.10;6.90;;;5.80;99.90;;;;;;1915666;73;21161;-74
2020/12/21 01:23:12;;;;;;;14.33;7.37;;;5.70;99.90;;;;;;1907668;75;21088;-74
2020/12/21 01:25:38;;;;;;;10.98;7.03;;;5.70;99.90;;;;;;1910163;75;21162;-75
2020/12/21 01:28:04;;;;;;;14.63;7.87;;;5.60;99.90;;;;;;1920345;74;21060;-75
2020/12/21 01:30:30;;;;;;;13.20;8.25;;;5.70;99.90;;;;;;1914764;75;21049;-74
2020/12/21 01:32:56;;;;;;;12.25;7.60;;;5.60;99.90;;;;;;1903880;75;21089;-74
2020/12/21 01:35:22;;;;;;;13.30;8.08;;;5.60;99.90;;;;;;1911375;74;21219;-74
2020/12/21 01:37:49;;;;;;;14.05;7.40;;;5.60;99.90;;;;;;1908653;75;21154;-73
2020/12/21 01:40:15;;;;;;;13.88;7.97;;;5.60;99.90;;;;;;1920079;74;21083;-73
2020/12/21 01:42:41;;;;;;;16.57;8.10;;;5.60;99.90;;;;;;1906375;75;21057;-73
2020/12/21 01:45:07;;;;;;;11.00;7.70;;;5.50;99.90;;;;;;1914436;75;21150;-73
2020/12/21 01:47:33;;;;;;;16.27;7.58;;;5.60;99.90;;;;;;1906751;75;21158;-72
2020/12/21 01:49:59;;;;;;;15.28;7.20;;;5.50;99.90;;;;;;1914075;75;21149;-73
2020/12/21 01:52:25;;;;;;;13.15;7.05;;;5.50;99.90;;;;;;1908882;75;21119;-73
2020/12/21 01:54:51;;;;;;;10.55;6.87;;;5.50;99.90;;;;;;1905590;75;21084;-73
2020/12/21 01:57:19;;;;;;;14.13;7.50;;;5.40;99.90;;;;;;1915120;74;21080;-73
2020/12/21 01:59:45;;;;;;;9.90;6.78;;;5.30;99.90;;;;;;1905391;75;21090;-73
2020/12/21 02:02:11;;;;;;;12.07;7.37;;;5.40;99.90;;;;;;1914140;73;21157;-73
2020/12/21 02:04:38;;;;;;;15.93;7.47;;;5.40;99.90;;;;;;1907780;75;21199;-73
2020/12/21 02:07:04;;;;;;;10.13;6.12;;;5.30;99.90;;;;;;1909953;73;21076;-72
2020/12/21 02:09:30;;;;;;;14.50;7.28;;;5.20;99.90;;;;;;1917992;75;21154;-73
2020/12/21 02:11:56;;;;;;;12.03;7.00;;;5.10;99.90;;;;;;1904869;75;21104;-73
2020/12/21 02:14:22;;;;;;;11.45;7.62;;;5.00;99.90;;;;;;1904743;75;21068;-73
2020/12/21 02:16:48;;;;;;;10.80;6.58;;;4.90;99.90;;;;;;1918537;73;21040;-74
2020/12/21 02:19:15;;;;;;;10.85;6.85;;;4.90;99.90;;;;;;1912473;75;21249;-75
2020/12/21 02:21:41;;;;;;;11.80;6.92;;;4.90;99.90;;;;;;1905021;75;21121;-74
2020/12/21 02:24:07;;;;;;;11.75;7.03;;;4.70;99.90;;;;;;1920179;73;21508;-74
2020/12/21 02:26:33;;;;;;;12.55;7.78;;;4.60;99.90;;;;;;1920245;73;21479;-75
2020/12/21 02:28:59;;;;;;;14.78;7.95;;;4.60;99.90;;;;;;1919616;73;21519;-75
2020/12/21 02:31:25;;;;;;;10.18;6.80;;;4.50;99.90;;;;;;1908571;75;21573;-75
2020/12/21 02:33:51;;;;;;;12.63;6.92;;;4.60;99.90;;;;;;1915543;75;21056;-74
2020/12/21 02:36:17;;;;;;;12.88;7.65;;;4.50;99.90;;;;;;1916328;73;21119;-74
2020/12/21 02:38:44;;;;;;;11.53;7.08;;;4.40;99.90;;;;;;1915898;75;21146;-75
2020/12/21 02:41:10;;;;;;;11.63;6.72;;;4.30;99.90;;;;;;1911526;75;21084;-75
2020/12/21 02:43:36;;;;;;;13.72;7.28;;;4.40;99.90;;;;;;1919020;73;21154;-75
2020/12/21 02:46:02;;;;;;;9.93;6.37;;;4.40;99.90;;;;;;1919754;75;21083;-75
2020/12/21 02:48:28;;;;;;;11.60;7.60;;;4.40;99.90;;;;;;1904806;74;21049;-75
2020/12/21 02:50:54;;;;;;;12.55;7.75;;;4.40;99.90;;;;;;1912492;73;21076;-75
2020/12/21 02:53:20;;;;;;;12.17;7.37;;;4.30;99.90;;;;;;1912431;75;21161;-75
2020/12/21 02:55:46;;;;;;;12.65;7.40;;;4.30;99.90;;;;;;1918931;75;21068;-74
2020/12/21 02:58:12;;;;;;;11.25;7.40;;;4.30;99.90;;;;;;1912392;75;21092;-75
2020/12/21 03:00:39;;;;;;;9.55;6.92;;;4.10;99.90;;;;;;1909375;74;21050;-75
2020/12/21 03:03:05;;;;;;;14.03;7.60;;;4.00;99.90;;;;;;1913250;75;21057;-74
2020/12/21 03:05:31;;;;;;;10.08;7.00;;;4.10;99.90;;;;;;1911828;74;21565;-75
2020/12/21 03:07:57;;;;;;;13.20;7.58;;;4.10;99.90;;;;;;1913716;75;21597;-75
2020/12/21 03:10:23;;;;;;;10.28;6.90;;;3.90;99.90;;;;;;1904215;73;21626;-74
2020/12/21 03:12:49;;;;;;;11.38;6.50;;;3.90;99.90;;;;;;1916547;75;21145;-74
2020/12/21 03:15:15;;;;;;;11.85;7.55;;;3.90;99.90;;;;;;1911586;74;21057;-75
2020/12/21 03:17:41;;;;;;;11.65;6.72;;;3.90;99.90;;;;;;1915115;73;21145;-75
2020/12/21 03:20:08;;;;;;;13.38;8.10;;;3.90;99.90;;;;;;1917988;73;21120;-73
2020/12/21 03:22:34;;;;;;;21.30;8.93;;;3.80;99.90;;;;;;1913088;75;21072;-74
2020/12/21 03:25:00;;;;;;;13.65;7.83;;;3.90;99.90;;;;;;1909237;73;21213;-74
2020/12/21 03:27:26;;;;;;;13.65;7.95;;;3.70;99.90;;;;;;1910538;73;21578;-74
2020/12/21 03:29:52;;;;;;;21.07;10.30;;;3.60;99.90;;;;;;1917737;73;21511;-74
2020/12/21 03:32:19;;;;;;;18.05;9.05;;;3.70;99.90;;;;;;1917891;73;21445;-74
2020/12/21 03:34:45;;;;;;;17.23;9.10;;;3.70;99.90;;;;;;1905329;75;21484;-74
2020/12/21 03:37:11;;;;;;;15.68;8.45;;;3.70;99.90;;;;;;1906922;75;21072;-74
2020/12/21 03:39:37;;;;;;;22.02;9.18;;;3.60;99.90;;;;;;1903742;75;21190;-74
2020/12/21 03:42:03;;;;;;;20.43;8.85;;;3.60;99.90;;;;;;1903756;75;21105;-74
2020/12/21 03:44:29;;;;;;;14.47;8.60;;;3.60;99.90;;;;;;1903844;75;21080;-74
2020/12/21 03:46:55;;;;;;;15.55;8.73;;;3.50;99.90;;;;;;1906671;75;21049;-74
2020/12/21 03:49:21;;;;;;;25.97;9.68;;;3.60;99.90;;;;;;1917917;75;21068;-73
2020/12/21 03:51:48;;;;;;;14.40;9.23;;;3.50;99.90;;;;;;1917203;73;21197;-74
2020/12/21 03:54:14;;;;;;;20.90;8.65;;;3.50;99.90;;;;;;1905708;75;21069;-73
2020/12/21 03:56:40;;;;;;;18.75;9.23;;;3.50;99.90;;;;;;1915771;74;21157;-74
2020/12/21 03:59:06;;;;;;;16.00;8.53;;;3.50;99.90;;;;;;1909750;75;21151;-74
2020/12/21 04:01:32;;;;;;;15.68;8.15;;;3.30;99.90;;;;;;1904827;75;21051;-74
2020/12/21 04:03:58;;;;;;;15.53;7.90;;;3.30;99.90;;;;;;1917721;75;21080;-74
2020/12/21 04:06:24;;;;;;;21.50;8.25;;;3.30;99.90;;;;;;1913023;75;21581;-74
2020/12/21 04:08:50;;;;;;;13.53;7.80;;;3.40;99.90;;;;;;1910535;75;21569;-74
2020/12/21 04:11:17;;;;;;;13.20;6.72;;;3.40;99.90;;;;;;1909858;75;21476;-74
2020/12/21 04:13:43;;;;;;;9.90;6.00;;;3.40;99.90;;;;;;1916302;75;21481;-74
2020/12/21 04:16:09;;;;;;;12.85;6.78;;;3.40;99.90;;;;;;1918087;73;21142;-74
2020/12/21 04:18:35;;;;;;;10.18;6.78;;;3.40;99.90;;;;;;1908090;75;21083;-74
2020/12/21 04:21:01;;;;;;;11.03;6.75;;;3.30;99.90;;;;;;1905062;75;21101;-74
2020/12/21 04:23:27;;;;;;;9.95;6.45;;;3.30;99.90;;;;;;1904712;75;21176;-74
2020/12/21 04:25:53;;;;;;;10.32;6.40;;;3.30;99.90;;;;;;1906928;75;21134;-73
2020/12/21 04:28:19;;;;;;;10.30;6.30;;;3.30;99.90;;;;;;1917448;73;21210;-74
2020/12/21 04:30:46;;;;;;;10.53;6.60;;;3.30;99.90;;;;;;1920298;75;21100;-74
2020/12/21 04:33:12;;;;;;;13.32;7.87;;;3.30;99.90;;;;;;1917980;73;21444;-73
2020/12/21 04:35:38;;;;;;;15.68;7.30;;;3.10;99.90;;;;;;1918089;74;21500;-73
2020/12/21 04:38:04;;;;;;;11.90;6.50;;;3.20;99.90;;;;;;1911634;75;21555;-74
2020/12/21 04:40:30;;;;;;;11.15;7.22;;;3.20;99.90;;;;;;1907565;75;21202;-74
2020/12/21 04:42:56;;;;;;;10.93;6.85;;;3.20;99.90;;;;;;1906045;75;21127;-74
2020/12/21 04:45:22;;;;;;;11.08;6.87;;;3.20;99.90;;;;;;1913877;75;21076;-74
2020/12/21 04:47:49;;;;;;;15.00;6.67;;;3.30;99.90;;;;;;1910005;73;21088;-75
2020/12/21 04:50:15;;;;;;;9.40;6.53;;;3.30;99.90;;;;;;1907419;75;21512;-74
2020/12/21 04:52:41;;;;;;;10.55;7.50;;;3.40;99.90;;;;;;1913511;74;21056;-74
2020/12/21 04:55:07;;;;;;;10.18;6.60;;;3.40;99.90;;;;;;1910252;75;21076;-74
2020/12/21 04:57:33;;;;;;;8.13;5.83;;;3.40;99.90;;;;;;1912982;73;21166;-74
2020/12/21 04:59:59;;;;;;;9.68;6.30;;;3.50;99.90;;;;;;1915205;73;21080;-74
2020/12/21 05:02:26;;;;;;;12.18;6.55;;;3.50;99.90;;;;;;1918010;75;21091;-74
2020/12/21 05:04:52;;;;;;;12.82;7.42;;;3.40;99.90;;;;;;1916813;73;21072;-74
2020/12/21 05:07:18;;;;;;;11.53;6.90;;;3.40;99.90;;;;;;1906725;75;21493;-73
2020/12/21 05:09:45;;;;;;;10.68;6.37;;;3.30;99.90;;;;;;1915888;74;21519;-74
2020/12/21 05:12:11;;;;;;;12.78;6.85;;;3.50;99.90;;;;;;1913078;75;21053;-74
2020/12/21 05:14:37;;;;;;;9.98;6.05;;;3.50;99.90;;;;;;1917956;75;21474;-74
2020/12/21 05:17:03;;;;;;;8.33;5.67;;;3.50;99.90;;;;;;1914748;75;21088;-74
2020/12/21 05:19:30;;;;;;;11.88;6.80;;;3.50;99.90;;;;;;1917954;75;21153;-73
2020/12/21 05:21:57;;;;;;;9.70;6.62;;;3.40;99.90;;;;;;1910196;74;21159;-74
2020/12/21 05:24:23;;;;;;;11.60;6.25;;;3.40;99.90;;;;;;1910274;74;21162;-73
2020/12/21 05:26:49;;;;;;;11.05;6.70;;;3.50;99.90;;;;;;1905465;75;21141;-73
2020/12/21 05:29:15;;;;;;;10.63;7.08;;;3.40;99.90;;;;;;1904759;75;21128;-74
2020/12/21 05:31:42;;;;;;;9.85;6.78;;;3.40;99.90;;;;;;1910613;75;21048;-74
2020/12/21 05:34:08;;;;;;;13.78;6.83;;;3.40;99.90;;;;;;1905400;75;21193;-74
2020/12/21 05:36:34;;;;;;;11.53;6.33;;;3.50;99.90;;;;;;1907523;75;21083;-74
2020/12/21 05:39:04;;;;;;;10.13;5.90;;;3.60;99.90;;;;;;1911955;74;21229;-74
2020/12/21 05:41:28;;;;;;;9.70;5.85;;;3.40;99.90;;;;;;1905633;75;21101;-73
2020/12/21 05:43:54;;;;;;;8.18;5.55;;;3.30;99.90;;;;;;1915262;75;21153;-74
2020/12/21 05:46:20;;;;;;;7.65;5.50;;;3.40;99.90;;;;;;1901597;75;21613;-74
2020/12/21 05:48:46;;;;;;;7.45;5.40;;;3.30;99.90;;;;;;1915334;75;21152;-75
2020/12/21 05:51:12;;;;;;;7.03;5.30;;;3.30;99.90;;;;;;1917988;73;21064;-74
2020/12/21 05:53:38;;;;;;;12.07;6.15;;;3.30;99.90;;;;;;1922769;74;21145;-75
2020/12/21 05:56:05;;;;;;;8.15;5.53;;;3.30;99.90;;;;;;1920838;73;21076;-74
2020/12/21 05:58:31;;;;;;;10.90;6.12;;;3.20;99.90;;;;;;1922675;74;21186;-74
2020/12/21 06:00:58;;;;;;;9.88;5.95;;;3.20;99.90;;;;;;1921554;73;21671;-75
2020/12/21 06:03:24;;;;;;;8.03;5.70;;;3.20;99.90;;;;;;1922042;74;21475;-74
2020/12/21 06:05:50;;;;;;;7.95;5.53;;;3.20;99.90;;;;;;1922763;74;21511;-74
2020/12/21 06:08:16;;;;;;;10.00;5.15;;;3.20;99.90;;;;;;1919947;74;21072;-74
2020/12/21 06:10:42;;;;;;;11.97;5.78;;;3.10;99.90;;;;;;1918686;74;21149;-74
2020/12/21 06:13:08;;;;;;;10.28;5.20;;;3.10;99.90;;;;;;1917477;74;21048;-74
2020/12/21 06:15:35;;;;;;;8.55;5.53;;;3.10;99.90;;;;;;1922140;74;21080;-73
2020/12/21 06:18:01;;;;;;;8.35;6.12;;;3.10;99.90;;;;;;1920773;74;21071;-74
2020/12/21 06:20:27;;;;;;;10.82;5.47;;;3.10;99.90;;;;;;1917096;74;21165;-74
2020/12/21 06:22:53;;;;;;;11.28;6.40;;;3.20;99.90;;;;;;1922920;73;21141;-74
2020/12/21 06:25:20;;;;;;;14.38;6.75;;;3.30;99.90;;;;;;1921642;74;21150;-74
2020/12/21 06:27:46;;;;;;;11.03;6.08;;;3.30;99.90;;;;;;1917633;74;21075;-74
2020/12/21 06:30:14;;;;;;;11.70;6.92;;;3.40;99.90;;;;;;1923261;74;21052;-74
2020/12/21 06:32:40;;;;;;;11.35;6.12;;;3.40;99.90;;;;;;1921995;74;21173;-78
2020/12/21 06:35:06;;;;;;;13.50;6.05;;;3.40;99.90;;;;;;1923719;73;21150;-76
2020/12/21 06:37:32;;;;;;;9.40;5.97;;;3.50;99.90;;;;;;1919173;73;21072;-76
2020/12/21 06:39:58;;;;;;;9.33;6.17;;;3.50;99.90;;;;;;1920145;73;21080;-76
2020/12/21 06:42:27;;;;;;;15.85;6.28;;;3.40;99.90;;;;;;1922827;73;21083;-75
2020/12/21 06:44:57;;;;;;;8.50;5.60;;;3.40;99.90;;;;;;1921252;73;21139;-78
2020/12/21 06:47:23;;;;;;;14.70;7.15;;;3.30;99.90;;;;;;1925283;73;21091;-78
2020/12/21 06:49:49;;;;;;;12.05;7.35;;;3.30;99.90;;;;;;1924707;73;21141;-79
2020/12/21 06:52:15;;;;;;;11.55;6.87;;;3.30;99.90;;;;;;1919312;73;21177;-78
2020/12/21 06:54:41;;;;;;;12.40;6.95;;;3.40;99.90;;;;;;1924120;74;21497;-78
2020/12/21 06:57:08;;;;;;;13.72;7.03;;;3.50;99.90;;;;;;1919395;74;21479;-77
2020/12/21 06:59:34;;;;;;;11.22;6.65;;;3.40;99.90;;;;;;1920455;73;21546;-80
2020/12/21 07:02:00;;;;;;;8.63;6.58;;;3.30;99.90;;;;;;1923372;73;21487;-79
2020/12/21 07:04:28;;;;;;;11.48;7.25;;;3.30;99.90;;;;;;1920781;73;21055;-79
2020/12/21 07:06:54;;;;;;;9.13;5.83;;;3.30;99.90;;;;;;1917890;73;21535;-79
2020/12/21 07:09:20;;;;;;;9.28;6.53;;;3.20;99.90;;;;;;1921029;73;21535;-77
2020/12/21 07:11:46;;;;;;;9.53;6.20;;;3.20;99.90;;;;;;1921050;73;21551;-79
2020/12/21 07:14:14;;;;;;;8.78;6.35;;;3.20;99.90;;;;;;1917481;74;21596;-79
2020/12/21 07:16:40;;;;;;;11.10;6.83;;;3.20;99.90;;;;;;1922162;74;21083;-79
2020/12/21 07:19:06;;;;;;;13.53;7.00;;;3.20;99.90;;;;;;1922686;74;21079;-77
2020/12/21 07:21:32;;;;;;;16.05;6.87;;;3.20;99.90;;;;;;1920338;73;21173;-80
2020/12/21 07:23:58;;;;;;;11.28;7.12;;;3.10;99.90;;;;;;1922558;73;21065;-80
2020/12/21 07:26:24;;;;;;;11.70;7.62;;;3.20;99.90;;;;;;1923277;74;21231;-80
2020/12/21 07:28:50;;;;;;;11.22;6.08;;;3.20;99.90;;;;;;1923029;74;21471;-80
2020/12/21 07:31:16;;;;;;;10.90;6.55;;;3.30;99.90;;;;;;1918322;73;21492;-80
2020/12/21 07:33:42;;;;;;;11.28;6.75;;;3.30;99.90;;;;;;1919718;74;21546;-79
2020/12/21 07:36:09;;;;;;;13.45;6.35;;;3.30;99.90;;;;;;1922609;73;21158;-80
2020/12/21 07:38:35;;;;;;;8.50;6.40;;;3.30;99.90;;;;;;1922672;74;21095;-80
2020/12/21 07:41:01;;;;;;;10.00;5.47;;;3.30;99.90;;;;;;1920962;74;21205;-79
2020/12/21 07:43:27;;;;;;;8.55;5.72;;;3.30;99.90;;;;;;1923793;74;21123;-79
2020/12/21 07:45:53;;;;;;;7.92;5.87;;;3.30;99.90;;;;;;1923248;73;21154;-77
2020/12/21 07:48:19;;;;;;;11.05;6.20;;;3.30;99.90;;;;;;1917506;73;21076;-78
2020/12/21 07:50:45;;;;;;;11.20;6.17;;;3.30;99.90;;;;;;1918317;73;21165;-79
2020/12/21 07:53:11;;;;;;;9.65;5.83;;;3.30;99.90;;;;;;1921015;74;21526;-77
2020/12/21 07:55:40;;;;;;;8.53;5.83;;;3.30;99.90;;;;;;1923213;73;21475;-82
2020/12/21 07:58:05;;;;;;;12.00;6.80;;;3.40;99.90;;;;;;1923175;74;21070;-77
2020/12/21 08:00:32;;;;;;;12.58;6.87;;;3.40;99.90;;;;;;1921111;73;21048;-75
2020/12/21 08:02:58;;;;;;;10.45;6.55;;;3.40;99.90;;;;;;1923599;73;21165;-79
2020/12/21 08:05:24;;;;;;;13.38;6.28;;;3.40;99.90;;;;;;1923754;74;21070;-78
2020/12/21 08:07:50;;;;;;;9.80;6.25;;;3.40;99.90;;;;;;1916947;74;21075;-76
2020/12/21 08:10:16;;;;;;;15.98;7.05;;;3.40;99.90;;;;;;1923343;73;21066;-78
2020/12/21 08:12:42;;;;;;;9.28;6.00;;;3.50;99.90;;;;;;1918633;73;21146;-77
2020/12/21 08:15:09;;;;;;;9.88;6.60;;;3.60;99.90;;;;;;1922552;73;21099;-77
2020/12/21 08:17:35;;;;;;;10.13;6.10;;;3.50;99.90;;;;;;1919756;74;21532;-79
2020/12/21 08:20:01;;;;;;;10.05;5.55;;;3.50;99.90;;;;;;1920083;74;21456;-76
2020/12/21 08:22:27;;;;;;;17.40;7.42;;;3.50;99.90;;;;;;1918441;73;21136;-77
2020/12/21 08:24:54;;;;;;;10.08;6.42;;;3.50;99.90;;;;;;1917906;73;21044;-78
2020/12/21 08:27:20;;;;;;;10.70;5.97;;;3.60;99.90;;;;;;1920762;73;21206;-79
2020/12/21 08:29:46;;;;;;;9.28;6.25;;;3.70;99.90;;;;;;1922098;73;21059;-79
2020/12/21 08:32:12;;;;;;;10.53;6.58;;;3.80;99.90;;;;;;1923155;73;21149;-80
2020/12/21 08:34:38;;;;;;;8.93;5.92;;;3.90;99.90;;;;;;1922937;74;21137;-81
2020/12/21 08:37:04;;;;;;;9.90;6.85;;;3.90;99.90;;;;;;1923188;73;21032;-78
2020/12/21 08:39:30;;;;;;;12.55;6.97;;;4.00;99.90;;;;;;1924601;73;21179;-80
2020/12/21 08:42:04;;;;;;;15.88;7.45;;;4.00;99.90;;;;;;1921184;73;21041;-82
2020/12/21 08:44:24;;;;;;;17.70;7.33;;;3.90;99.90;;;;;;1919939;73;21433;-84
2020/12/21 08:46:51;;;;;;;10.13;6.33;;;4.00;99.90;;;;;;1923729;74;21658;-85
2020/12/21 08:49:17;;;;;;;12.50;6.70;;;4.10;99.90;;;;;;1915338;74;21216;-83
2020/12/21 08:51:43;;;;;;;8.45;5.95;;;4.20;99.90;;;;;;1925168;73;21075;-81
2020/12/21 08:54:09;;;;;;;9.05;5.85;;;4.40;99.90;;;;;;1924116;74;21069;-82
2020/12/21 08:56:35;;;;;;;13.75;6.00;;;4.60;99.90;;;;;;1922141;73;21060;-83
2020/12/21 08:59:01;;;;;;;10.38;6.42;;;4.60;99.90;;;;;;1920632;73;21035;-79
2020/12/21 09:01:27;;;;;;;11.85;6.28;;;4.60;99.90;;;;;;1920291;74;21076;-78
2020/12/21 09:03:53;;;;;;;7.67;5.50;;;4.70;99.90;;;;;;1922403;74;21173;-79
2020/12/21 09:06:20;;;;;;;9.80;5.97;;;4.80;99.90;;;;;;1919827;74;21174;-79
2020/12/21 09:08:46;;;;;;;9.35;5.62;;;5.00;99.90;;;;;;1919889;74;21461;-81
2020/12/21 09:11:12;;;;;;;10.03;5.53;;;4.70;99.90;;;;;;1919334;74;21428;-79
2020/12/21 09:13:38;;;;;;;8.08;5.80;;;4.60;99.90;;;;;;1913689;74;21076;-79
2020/12/21 09:16:04;;;;;;;11.20;5.67;;;4.60;99.90;;;;;;1924318;73;21079;-79
2020/12/21 09:18:30;;;;;;;10.55;5.80;;;4.70;99.90;;;;;;1922109;74;21068;-79
2020/12/21 09:20:56;;;;;;;10.93;5.33;;;4.70;99.90;;;;;;1915949;73;21058;-79
2020/12/21 09:23:22;;;;;;;16.40;6.00;;;4.80;99.90;;;;;;1918194;73;21178;-79
2020/12/21 09:25:49;;;;;;;6.37;4.70;;;5.00;99.90;;;;;;1920796;73;21080;-80
2020/12/21 09:28:15;;;;;;;7.58;4.97;;;5.00;99.90;;;;;;1918382;73;21214;-80
2020/12/21 09:30:41;;;;;;;12.00;5.45;;;4.90;99.90;;;;;;1925958;73;21150;-79
2020/12/21 09:33:07;;;;;;;6.17;4.78;;;4.80;99.90;;;;;;1920393;74;21060;-80
2020/12/21 09:35:33;;;;;;;9.50;5.50;;;4.90;99.90;;;;;;1912743;74;21053;-79
2020/12/21 09:38:00;;;;;;;10.45;5.78;;;5.00;99.90;;;;;;1918620;73;21135;-80
2020/12/21 09:40:26;;;;;;;8.40;5.50;;;4.90;99.90;;;;;;1918340;73;21091;-80
2020/12/21 09:42:52;;;;;;;9.58;5.62;;;5.00;99.90;;;;;;1923743;73;21142;-78
2020/12/21 09:45:18;;;;;;;8.80;4.78;;;5.00;99.90;;;;;;1918157;74;21080;-78
2020/12/21 09:47:44;;;;;;;8.93;5.90;;;5.10;99.90;;;;;;1923181;74;21067;-79
2020/12/21 09:50:10;;;;;;;11.80;5.33;;;5.10;99.90;;;;;;1918546;74;21080;-80
2020/12/21 09:52:37;;;;;;;8.15;5.50;;;5.00;99.90;;;;;;1918238;73;21048;-75
2020/12/21 09:55:03;;;;;;;8.08;4.90;;;5.10;99.90;;;;;;1921362;74;21075;-75
2020/12/21 09:57:29;;;;;;;7.20;4.95;;;5.10;99.90;;;;;;1926136;74;21091;-76
2020/12/21 09:59:55;;;;;;;9.30;5.10;;;5.10;99.90;;;;;;1915551;73;21489;-76
2020/12/21 10:02:21;;;;;;;8.90;5.03;;;5.20;99.90;;;;;;1920581;73;21483;-75
2020/12/21 10:04:47;;;;;;;8.50;5.08;;;5.40;99.90;;;;;;1923254;73;21063;-75
2020/12/21 10:07:13;;;;;;;10.53;5.17;;;5.50;99.90;;;;;;1917321;74;21080;-73
2020/12/21 10:09:40;;;;;;;9.45;4.80;;;5.60;99.90;;;;;;1926030;74;21048;-77
2020/12/21 10:12:06;;;;;;;9.08;4.58;;;5.50;99.90;;;;;;1918848;74;21080;-76
2020/12/21 10:14:32;;;;;;;5.28;4.08;;;5.40;99.90;;;;;;1916373;73;21145;-76
2020/12/21 10:16:58;;;;;;;9.43;5.20;;;5.50;99.90;;;;;;1917773;74;21075;-77
2020/12/21 10:19:24;;;;;;;8.33;4.70;;;5.50;99.90;;;;;;1920904;74;21125;-75
2020/12/21 10:21:50;;;;;;;16.80;5.45;;;5.50;99.90;;;;;;1918646;74;21075;-75
2020/12/21 10:24:16;;;;;;;10.25;4.70;;;5.50;99.90;;;;;;1924045;74;21257;-75
2020/12/21 10:26:43;;;;;;;13.05;5.22;;;5.50;99.90;;;;;;1925117;74;21075;-76
2020/12/21 10:29:09;;;;;;;9.95;5.40;;;5.50;99.90;;;;;;1920843;73;21170;-75
2020/12/21 10:31:35;;;;;;;8.40;5.33;;;5.60;99.90;;;;;;1920516;73;21067;-76
2020/12/21 10:34:01;;;;;;;17.77;5.53;;;5.60;99.90;;;;;;1921264;73;21401;-76
2020/12/21 10:36:27;;;;;;;12.33;5.80;;;5.60;99.90;;;;;;1920945;74;21074;-77
2020/12/21 10:38:54;;;;;;;7.80;5.60;;;5.50;99.90;;;;;;1920433;74;21079;-76
2020/12/21 10:41:20;;;;;;;8.00;5.42;;;5.60;99.90;;;;;;1919005;73;21083;-77
2020/12/21 10:43:46;;;;;;;8.83;5.25;;;5.70;99.90;;;;;;1921715;73;21167;-77
2020/12/21 10:46:12;;;;;;;12.13;5.72;;;5.60;99.90;;;;;;1915870;73;21079;-76
2020/12/21 10:48:38;;;;;;;7.87;4.50;;;5.70;99.90;;;;;;1924840;74;21141;-77
2020/12/21 10:51:04;;;;;;;14.93;5.50;;;5.70;99.90;;;;;;1919194;73;21166;-77
2020/12/21 10:53:30;;;;;;;10.25;5.12;;;5.70;99.90;;;;;;1920602;74;21075;-78
2020/12/21 10:55:56;;;;;;;9.83;5.45;;;5.70;99.90;;;;;;1920323;74;21048;-77
2020/12/21 10:58:23;;;;;;;8.30;5.42;;;5.60;99.90;;;;;;1922800;73;21079;-79
2020/12/21 11:00:49;;;;;;;15.18;6.50;;;5.60;99.90;;;;;;1918306;74;21076;-79
2020/12/21 11:03:16;;;;;;;17.23;5.92;;;5.80;99.90;;;;;;1920214;74;21087;-78
2020/12/21 11:05:42;;;;;;;20.25;5.45;;;6.00;99.90;;;;;;1919016;73;21080;-79
2020/12/21 11:08:08;;;;;;;11.88;5.25;;;6.10;99.90;;;;;;1919272;74;21200;-76
2020/12/21 11:10:34;;;;;;;10.80;6.03;;;6.00;99.90;;;;;;1920225;74;21040;-78
2020/12/21 11:13:00;;;;;;;9.88;5.37;;;6.10;99.90;;;;;;1921033;74;21084;-78
2020/12/21 11:15:27;;;;;;;18.48;6.42;;;6.20;99.90;;;;;;1921553;74;21157;-78
2020/12/21 11:17:53;;;;;;;7.67;4.92;;;6.20;99.90;;;;;;1917562;74;21499;-76
2020/12/21 11:20:19;;;;;;;11.60;5.70;;;6.10;99.90;;;;;;1921351;73;21620;-78
2020/12/21 11:22:45;;;;;;;12.80;5.33;;;6.10;99.90;;;;;;1925859;74;21566;-74
2020/12/21 11:25:11;;;;;;;8.15;5.28;;;6.10;99.90;;;;;;1921073;73;21056;-75
2020/12/21 11:27:37;;;;;;;11.78;5.60;;;6.20;99.90;;;;;;1921908;73;21129;-75
2020/12/21 11:30:03;;;;;;;19.48;5.42;;;6.20;99.90;;;;;;1923910;74;21071;-75
2020/12/21 11:32:29;;;;;;;17.45;5.05;;;6.30;99.90;;;;;;1921940;74;21075;-76
2020/12/21 11:34:56;;;;;;;9.50;5.22;;;6.40;99.90;;;;;;1920548;74;21153;-76
2020/12/21 11:37:22;;;;;;;9.38;4.92;;;6.40;99.90;;;;;;1919495;73;21084;-76
2020/12/21 11:39:48;;;;;;;15.25;5.45;;;6.30;99.90;;;;;;1920506;73;21067;-77
2020/12/21 11:42:14;;;;;;;9.75;5.33;;;6.40;99.90;;;;;;1913051;73;21065;-76
2020/12/21 11:44:40;;;;;;;11.40;5.25;;;6.40;99.90;;;;;;1921042;74;21218;-76
2020/12/21 11:47:06;;;;;;;8.98;4.80;;;6.40;99.90;;;;;;1919569;74;21059;-76
2020/12/21 11:49:32;;;;;;;11.95;6.15;;;6.40;99.90;;;;;;1924291;74;21079;-76
2020/12/21 11:51:58;;;;;;;10.03;5.62;;;6.50;99.90;;;;;;1919984;74;21080;-75
2020/12/21 11:54:27;;;;;;;11.90;5.83;;;6.60;99.90;;;;;;1918208;73;21057;-76
2020/12/21 11:56:56;;;;;;;8.68;5.12;;;6.60;99.90;;;;;;1924975;73;21079;-74
2020/12/21 11:59:22;;;;;;;9.18;4.58;;;6.40;99.90;;;;;;1920650;73;21055;-76
2020/12/21 12:01:48;;;;;;;9.53;4.58;;;6.40;99.90;;;;;;1921613;73;21079;-76
2020/12/21 12:04:15;;;;;;;12.33;5.15;;;6.40;99.90;;;;;;1919298;74;21569;-73
2020/12/21 12:06:43;;;;;;;10.08;5.33;;;6.40;99.90;;;;;;1918670;73;21515;-74
2020/12/21 12:09:09;;;;;;;10.75;5.70;;;6.50;99.90;;;;;;1920943;74;21130;-74
2020/12/21 12:11:35;;;;;;;14.10;6.83;;;6.60;99.90;;;;;;1918782;74;21083;-74
2020/12/21 12:14:01;;;;;;;12.30;6.28;;;6.70;99.90;;;;;;1915831;73;21048;-75
2020/12/21 12:16:27;;;;;;;10.65;5.85;;;6.80;99.90;;;;;;1918095;74;21080;-76
2020/12/21 12:18:53;;;;;;;19.57;6.55;;;7.00;99.90;;;;;;1919082;74;21488;-74
2020/12/21 12:21:19;;;;;;;8.30;5.53;;;7.10;99.90;;;;;;1919067;74;21491;-74
2020/12/21 12:23:45;;;;;;;9.30;5.53;;;7.10;99.90;;;;;;1918711;73;21267;-75
2020/12/21 12:26:12;;;;;;;13.10;5.83;;;7.10;99.90;;;;;;1919495;73;21086;-75
2020/12/21 12:28:38;;;;;;;12.13;5.10;;;7.20;99.90;;;;;;1921272;73;21079;-75
2020/12/21 12:31:04;;;;;;;10.95;5.25;;;7.30;99.90;;;;;;1917045;73;21275;-74
2020/12/21 12:33:30;;;;;;;9.00;5.62;;;7.40;99.90;;;;;;1922664;73;21112;-74
2020/12/21 12:35:56;;;;;;;9.00;4.95;;;7.20;99.90;;;;;;1924484;73;21076;-75
2020/12/21 12:38:22;;;;;;;11.93;5.20;;;7.20;99.90;;;;;;1922287;73;21068;-73
2020/12/21 12:40:48;;;;;;;12.25;5.75;;;7.30;99.90;;;;;;1923571;74;21158;-74
2020/12/21 12:43:14;;;;;;;8.93;4.95;;;7.40;99.90;;;;;;1924261;73;21141;-73